sensor_id;sensor_type;location;lat;lon;timestamp;P1;durP1;ratioP1;P2;durP2;ratioP2
35540;SDS011;21650;48.840;9.162;2023-03-23T00:01:09;2.20;;;1.23;;
35540;SDS011;21650;48.840;9.162;2023-03-23T00:03:37;1.63;;;1.20;;
35540;SDS011;21650;48.840;9.162;2023-03-23T00:06:04;1.90;;;1.27;;
35540;SDS011;21650;48.840;9.162;2023-03-23T00:08:35;2.23;;;1.40;;
35540;SDS011;21650;48.840;9.162;2023-03-23T00:11:10;2.00;;;1.00;;
35540;SDS011;21650;48.840;9.162;2023-03-23T00:13:39;1.30;;;1.00;;
35540;SDS011;21650;48.840;9.162;2023-03-23T00:16:05;1.93;;;0.90;;
35540;SDS011;21650;48.840;9.162;2023-03-23T00:18:46;1.37;;;1.00;;
35540;SDS011;21650;48.840;9.162;2023-03-23T00:21:12;1.77;;;1.00;;
35540;SDS011;21650;48.840;9.162;2023-03-23T00:23:38;1.27;;;1.10;;
35540;SDS011;21650;48.840;9.162;2023-03-23T00:26:04;1.43;;;1.03;;
35540;SDS011;21650;48.840;9.162;2023-03-23T00:28:30;1.53;;;1.00;;
35540;SDS011;21650;48.840;9.162;2023-03-23T00:30:57;2.07;;;1.07;;
35540;SDS011;21650;48.840;9.162;2023-03-23T00:33:31;1.77;;;1.10;;
35540;SDS011;21650;48.840;9.162;2023-03-23T00:36:02;2.30;;;1.20;;
35540;SDS011;21650;48.840;9.162;2023-03-23T00:38:29;1.23;;;1.10;;
35540;SDS011;21650;48.840;9.162;2023-03-23T00:40:56;1.13;;;1.00;;
35540;SDS011;21650;48.840;9.162;2023-03-23T00:43:22;1.77;;;1.10;;
35540;SDS011;21650;48.840;9.162;2023-03-23T00:45:49;3.20;;;1.03;;
35540;SDS011;21650;48.840;9.162;2023-03-23T00:48:24;1.43;;;0.97;;
35540;SDS011;21650;48.840;9.162;2023-03-23T00:50:50;1.07;;;0.97;;
35540;SDS011;21650;48.840;9.162;2023-03-23T00:53:17;1.30;;;0.93;;
35540;SDS011;21650;48.840;9.162;2023-03-23T00:55:47;1.90;;;1.40;;
35540;SDS011;21650;48.840;9.162;2023-03-23T00:58:13;1.03;;;0.93;;
35540;SDS011;21650;48.840;9.162;2023-03-23T01:00:40;1.50;;;1.00;;
35540;SDS011;21650;48.840;9.162;2023-03-23T01:03:06;2.93;;;0.90;;
35540;SDS011;21650;48.840;9.162;2023-03-23T01:05:37;3.23;;;0.80;;
35540;SDS011;21650;48.840;9.162;2023-03-23T01:08:04;2.87;;;1.53;;
35540;SDS011;21650;48.840;9.162;2023-03-23T01:10:30;2.40;;;1.20;;
35540;SDS011;21650;48.840;9.162;2023-03-23T01:13:00;1.23;;;1.13;;
35540;SDS011;21650;48.840;9.162;2023-03-23T01:15:26;1.83;;;1.20;;
35540;SDS011;21650;48.840;9.162;2023-03-23T01:17:53;2.73;;;1.40;;
35540;SDS011;21650;48.840;9.162;2023-03-23T01:20:20;2.17;;;1.43;;
35540;SDS011;21650;48.840;9.162;2023-03-23T01:22:45;1.20;;;1.10;;
35540;SDS011;21650;48.840;9.162;2023-03-23T01:25:11;3.43;;;1.03;;
35540;SDS011;21650;48.840;9.162;2023-03-23T01:27:38;2.57;;;0.93;;
35540;SDS011;21650;48.840;9.162;2023-03-23T01:30:05;2.73;;;0.90;;
35540;SDS011;21650;48.840;9.162;2023-03-23T01:32:33;1.40;;;0.93;;
35540;SDS011;21650;48.840;9.162;2023-03-23T01:34:59;2.63;;;1.00;;
35540;SDS011;21650;48.840;9.162;2023-03-23T01:37:25;1.70;;;1.10;;
35540;SDS011;21650;48.840;9.162;2023-03-23T01:39:54;4.47;;;1.10;;
35540;SDS011;21650;48.840;9.162;2023-03-23T01:42:39;2.77;;;1.13;;
35540;SDS011;21650;48.840;9.162;2023-03-23T01:48:01;0.97;;;0.87;;
35540;SDS011;21650;48.840;9.162;2023-03-23T01:50:30;0.97;;;0.83;;
35540;SDS011;21650;48.840;9.162;2023-03-23T01:53:02;1.40;;;1.20;;
35540;SDS011;21650;48.840;9.162;2023-03-23T01:55:33;1.70;;;1.10;;
35540;SDS011;21650;48.840;9.162;2023-03-23T01:58:01;1.77;;;0.87;;
35540;SDS011;21650;48.840;9.162;2023-03-23T02:00:27;3.20;;;1.33;;
35540;SDS011;21650;48.840;9.162;2023-03-23T02:02:55;3.20;;;1.20;;
35540;SDS011;21650;48.840;9.162;2023-03-23T02:05:29;3.73;;;1.30;;
35540;SDS011;21650;48.840;9.162;2023-03-23T02:07:58;2.30;;;1.60;;
35540;SDS011;21650;48.840;9.162;2023-03-23T02:10:28;3.70;;;1.70;;
35540;SDS011;21650;48.840;9.162;2023-03-23T02:12:54;2.47;;;1.30;;
35540;SDS011;21650;48.840;9.162;2023-03-23T02:15:20;2.40;;;1.27;;
35540;SDS011;21650;48.840;9.162;2023-03-23T02:17:56;1.67;;;1.13;;
35540;SDS011;21650;48.840;9.162;2023-03-23T02:23:25;1.10;;;1.00;;
35540;SDS011;21650;48.840;9.162;2023-03-23T02:26:34;2.57;;;1.20;;
35540;SDS011;21650;48.840;9.162;2023-03-23T02:34:59;2.00;;;1.30;;
35540;SDS011;21650;48.840;9.162;2023-03-23T02:37:29;2.73;;;1.40;;
35540;SDS011;21650;48.840;9.162;2023-03-23T02:40:06;1.50;;;1.20;;
35540;SDS011;21650;48.840;9.162;2023-03-23T02:42:45;1.77;;;1.30;;
35540;SDS011;21650;48.840;9.162;2023-03-23T02:45:14;2.93;;;1.23;;
35540;SDS011;21650;48.840;9.162;2023-03-23T02:47:42;2.83;;;1.50;;
35540;SDS011;21650;48.840;9.162;2023-03-23T02:50:10;1.10;;;0.90;;
35540;SDS011;21650;48.840;9.162;2023-03-23T02:52:39;3.10;;;1.20;;
35540;SDS011;21650;48.840;9.162;2023-03-23T02:55:07;1.53;;;1.30;;
35540;SDS011;21650;48.840;9.162;2023-03-23T02:57:36;3.00;;;1.33;;
35540;SDS011;21650;48.840;9.162;2023-03-23T03:00:04;1.67;;;1.20;;
35540;SDS011;21650;48.840;9.162;2023-03-23T03:02:35;1.40;;;1.00;;
35540;SDS011;21650;48.840;9.162;2023-03-23T03:05:09;5.50;;;1.30;;
35540;SDS011;21650;48.840;9.162;2023-03-23T03:08:19;2.27;;;1.40;;
35540;SDS011;21650;48.840;9.162;2023-03-23T03:10:55;3.77;;;1.33;;
35540;SDS011;21650;48.840;9.162;2023-03-23T03:19:14;2.50;;;1.17;;
35540;SDS011;21650;48.840;9.162;2023-03-23T03:21:47;2.33;;;1.17;;
35540;SDS011;21650;48.840;9.162;2023-03-23T03:24:15;2.20;;;1.23;;
35540;SDS011;21650;48.840;9.162;2023-03-23T03:26:47;1.70;;;1.27;;
35540;SDS011;21650;48.840;9.162;2023-03-23T03:29:15;2.83;;;1.57;;
35540;SDS011;21650;48.840;9.162;2023-03-23T03:31:45;1.20;;;1.10;;
35540;SDS011;21650;48.840;9.162;2023-03-23T03:34:13;2.43;;;1.20;;
35540;SDS011;21650;48.840;9.162;2023-03-23T03:36:43;4.03;;;1.33;;
35540;SDS011;21650;48.840;9.162;2023-03-23T03:39:11;1.90;;;1.73;;
35540;SDS011;21650;48.840;9.162;2023-03-23T03:41:40;3.60;;;1.43;;
35540;SDS011;21650;48.840;9.162;2023-03-23T03:44:06;6.30;;;1.50;;
35540;SDS011;21650;48.840;9.162;2023-03-23T03:46:33;1.50;;;1.00;;
35540;SDS011;21650;48.840;9.162;2023-03-23T03:49:00;7.63;;;1.40;;
35540;SDS011;21650;48.840;9.162;2023-03-23T03:51:27;1.83;;;1.20;;
35540;SDS011;21650;48.840;9.162;2023-03-23T03:53:54;1.70;;;1.27;;
35540;SDS011;21650;48.840;9.162;2023-03-23T03:56:20;4.20;;;1.57;;
35540;SDS011;21650;48.840;9.162;2023-03-23T03:58:50;2.10;;;1.40;;
35540;SDS011;21650;48.840;9.162;2023-03-23T04:01:17;1.30;;;0.93;;
35540;SDS011;21650;48.840;9.162;2023-03-23T04:03:44;2.00;;;1.20;;
35540;SDS011;21650;48.840;9.162;2023-03-23T04:06:10;1.07;;;0.93;;
35540;SDS011;21650;48.840;9.162;2023-03-23T04:08:39;3.67;;;1.20;;
35540;SDS011;21650;48.840;9.162;2023-03-23T04:11:06;1.77;;;1.20;;
35540;SDS011;21650;48.840;9.162;2023-03-23T04:13:37;1.43;;;1.10;;
35540;SDS011;21650;48.840;9.162;2023-03-23T04:16:03;3.50;;;1.10;;
35540;SDS011;21650;48.840;9.162;2023-03-23T04:18:29;2.03;;;1.30;;
35540;SDS011;21650;48.840;9.162;2023-03-23T04:20:57;1.03;;;0.90;;
35540;SDS011;21650;48.840;9.162;2023-03-23T04:23:24;1.67;;;1.50;;
35540;SDS011;21650;48.840;9.162;2023-03-23T04:25:51;1.70;;;1.00;;
35540;SDS011;21650;48.840;9.162;2023-03-23T04:28:22;1.10;;;0.87;;
35540;SDS011;21650;48.840;9.162;2023-03-23T04:30:49;1.83;;;1.13;;
35540;SDS011;21650;48.840;9.162;2023-03-23T04:33:17;2.80;;;1.10;;
35540;SDS011;21650;48.840;9.162;2023-03-23T04:35:44;1.97;;;1.37;;
35540;SDS011;21650;48.840;9.162;2023-03-23T04:38:10;1.50;;;1.10;;
35540;SDS011;21650;48.840;9.162;2023-03-23T04:40:38;1.93;;;1.10;;
35540;SDS011;21650;48.840;9.162;2023-03-23T04:43:05;1.63;;;1.30;;
35540;SDS011;21650;48.840;9.162;2023-03-23T04:45:32;2.10;;;1.20;;
35540;SDS011;21650;48.840;9.162;2023-03-23T04:47:59;1.33;;;1.17;;
35540;SDS011;21650;48.840;9.162;2023-03-23T04:50:29;1.97;;;1.37;;
35540;SDS011;21650;48.840;9.162;2023-03-23T04:52:56;3.97;;;1.27;;
35540;SDS011;21650;48.840;9.162;2023-03-23T04:55:23;1.13;;;1.03;;
35540;SDS011;21650;48.840;9.162;2023-03-23T04:57:50;1.50;;;1.10;;
35540;SDS011;21650;48.840;9.162;2023-03-23T05:00:16;3.23;;;1.20;;
35540;SDS011;21650;48.840;9.162;2023-03-23T05:02:43;4.57;;;1.27;;
35540;SDS011;21650;48.840;9.162;2023-03-23T05:05:11;1.00;;;0.90;;
35540;SDS011;21650;48.840;9.162;2023-03-23T05:07:38;1.70;;;1.10;;
35540;SDS011;21650;48.840;9.162;2023-03-23T05:10:04;1.27;;;1.17;;
35540;SDS011;21650;48.840;9.162;2023-03-23T05:12:31;1.37;;;0.90;;
35540;SDS011;21650;48.840;9.162;2023-03-23T05:18:18;1.57;;;1.10;;
35540;SDS011;21650;48.840;9.162;2023-03-23T05:20:45;2.50;;;1.10;;
35540;SDS011;21650;48.840;9.162;2023-03-23T05:23:11;1.23;;;1.00;;
35540;SDS011;21650;48.840;9.162;2023-03-23T05:25:37;1.67;;;1.00;;
35540;SDS011;21650;48.840;9.162;2023-03-23T05:28:06;1.60;;;1.00;;
35540;SDS011;21650;48.840;9.162;2023-03-23T05:30:32;2.27;;;1.10;;
35540;SDS011;21650;48.840;9.162;2023-03-23T05:32:58;1.37;;;0.97;;
35540;SDS011;21650;48.840;9.162;2023-03-23T05:35:24;5.93;;;1.17;;
35540;SDS011;21650;48.840;9.162;2023-03-23T05:37:50;1.70;;;1.13;;
35540;SDS011;21650;48.840;9.162;2023-03-23T05:40:18;2.07;;;1.10;;
35540;SDS011;21650;48.840;9.162;2023-03-23T05:42:45;1.53;;;1.37;;
35540;SDS011;21650;48.840;9.162;2023-03-23T05:45:12;0.97;;;0.80;;
35540;SDS011;21650;48.840;9.162;2023-03-23T05:47:38;2.10;;;1.10;;
35540;SDS011;21650;48.840;9.162;2023-03-23T05:50:05;1.80;;;1.33;;
35540;SDS011;21650;48.840;9.162;2023-03-23T05:52:33;2.70;;;1.40;;
35540;SDS011;21650;48.840;9.162;2023-03-23T05:55:00;3.87;;;1.37;;
35540;SDS011;21650;48.840;9.162;2023-03-23T05:57:26;3.13;;;1.47;;
35540;SDS011;21650;48.840;9.162;2023-03-23T05:59:52;1.27;;;1.07;;
35540;SDS011;21650;48.840;9.162;2023-03-23T06:02:18;3.50;;;1.10;;
35540;SDS011;21650;48.840;9.162;2023-03-23T06:04:44;2.90;;;1.20;;
35540;SDS011;21650;48.840;9.162;2023-03-23T06:07:09;1.53;;;1.17;;
35540;SDS011;21650;48.840;9.162;2023-03-23T06:09:39;2.33;;;1.30;;
35540;SDS011;21650;48.840;9.162;2023-03-23T06:12:06;1.50;;;1.40;;
35540;SDS011;21650;48.840;9.162;2023-03-23T06:14:32;5.50;;;2.20;;
35540;SDS011;21650;48.840;9.162;2023-03-23T06:16:58;2.10;;;1.57;;
35540;SDS011;21650;48.840;9.162;2023-03-23T06:19:24;2.40;;;1.50;;
35540;SDS011;21650;48.840;9.162;2023-03-23T06:21:51;4.73;;;1.67;;
35540;SDS011;21650;48.840;9.162;2023-03-23T06:24:19;3.40;;;1.90;;
35540;SDS011;21650;48.840;9.162;2023-03-23T06:26:44;2.80;;;1.30;;
35540;SDS011;21650;48.840;9.162;2023-03-23T06:29:10;4.43;;;1.50;;
35540;SDS011;21650;48.840;9.162;2023-03-23T06:31:39;3.13;;;1.73;;
35540;SDS011;21650;48.840;9.162;2023-03-23T06:34:07;1.83;;;1.23;;
35540;SDS011;21650;48.840;9.162;2023-03-23T06:36:34;2.00;;;1.53;;
35540;SDS011;21650;48.840;9.162;2023-03-23T06:39:00;3.70;;;2.07;;
35540;SDS011;21650;48.840;9.162;2023-03-23T06:41:29;2.83;;;1.57;;
35540;SDS011;21650;48.840;9.162;2023-03-23T06:43:55;3.90;;;1.60;;
35540;SDS011;21650;48.840;9.162;2023-03-23T06:46:20;3.50;;;2.17;;
35540;SDS011;21650;48.840;9.162;2023-03-23T06:48:46;7.17;;;1.67;;
35540;SDS011;21650;48.840;9.162;2023-03-23T06:51:14;2.23;;;1.50;;
35540;SDS011;21650;48.840;9.162;2023-03-23T06:53:40;2.67;;;1.60;;
35540;SDS011;21650;48.840;9.162;2023-03-23T06:56:06;2.97;;;1.97;;
35540;SDS011;21650;48.840;9.162;2023-03-23T06:58:31;2.50;;;1.73;;
35540;SDS011;21650;48.840;9.162;2023-03-23T07:00:57;4.03;;;2.10;;
35540;SDS011;21650;48.840;9.162;2023-03-23T07:03:23;4.97;;;2.13;;
35540;SDS011;21650;48.840;9.162;2023-03-23T07:05:49;2.83;;;1.60;;
35540;SDS011;21650;48.840;9.162;2023-03-23T07:08:15;3.13;;;1.40;;
35540;SDS011;21650;48.840;9.162;2023-03-23T07:10:40;3.57;;;2.07;;
35540;SDS011;21650;48.840;9.162;2023-03-23T07:13:06;6.10;;;1.60;;
35540;SDS011;21650;48.840;9.162;2023-03-23T07:15:32;4.13;;;1.97;;
35540;SDS011;21650;48.840;9.162;2023-03-23T07:17:57;5.00;;;2.20;;
35540;SDS011;21650;48.840;9.162;2023-03-23T07:20:23;6.30;;;2.10;;
35540;SDS011;21650;48.840;9.162;2023-03-23T07:22:49;5.40;;;1.90;;
35540;SDS011;21650;48.840;9.162;2023-03-23T07:25:15;4.60;;;2.17;;
35540;SDS011;21650;48.840;9.162;2023-03-23T07:27:41;4.30;;;2.20;;
35540;SDS011;21650;48.840;9.162;2023-03-23T07:30:07;2.40;;;1.87;;
35540;SDS011;21650;48.840;9.162;2023-03-23T07:32:35;6.20;;;1.90;;
35540;SDS011;21650;48.840;9.162;2023-03-23T07:35:01;4.40;;;1.67;;
35540;SDS011;21650;48.840;9.162;2023-03-23T07:37:26;2.97;;;1.53;;
35540;SDS011;21650;48.840;9.162;2023-03-23T07:39:53;3.70;;;2.07;;
35540;SDS011;21650;48.840;9.162;2023-03-23T07:42:18;3.43;;;2.67;;
35540;SDS011;21650;48.840;9.162;2023-03-23T07:44:44;3.17;;;1.90;;
35540;SDS011;21650;48.840;9.162;2023-03-23T07:47:10;3.73;;;1.83;;
35540;SDS011;21650;48.840;9.162;2023-03-23T07:49:35;4.17;;;1.73;;
35540;SDS011;21650;48.840;9.162;2023-03-23T07:52:02;7.23;;;2.17;;
35540;SDS011;21650;48.840;9.162;2023-03-23T07:54:27;2.90;;;1.97;;
35540;SDS011;21650;48.840;9.162;2023-03-23T07:56:53;2.20;;;1.90;;
35540;SDS011;21650;48.840;9.162;2023-03-23T07:59:19;3.03;;;1.80;;
35540;SDS011;21650;48.840;9.162;2023-03-23T08:01:45;5.57;;;1.90;;
35540;SDS011;21650;48.840;9.162;2023-03-23T08:04:11;3.50;;;1.70;;
35540;SDS011;21650;48.840;9.162;2023-03-23T08:06:38;2.13;;;1.53;;
35540;SDS011;21650;48.840;9.162;2023-03-23T08:09:04;3.73;;;1.57;;
35540;SDS011;21650;48.840;9.162;2023-03-23T08:11:36;4.23;;;1.70;;
35540;SDS011;21650;48.840;9.162;2023-03-23T08:14:02;1.73;;;1.60;;
35540;SDS011;21650;48.840;9.162;2023-03-23T08:16:28;2.37;;;1.60;;
35540;SDS011;21650;48.840;9.162;2023-03-23T08:18:53;2.90;;;1.70;;
35540;SDS011;21650;48.840;9.162;2023-03-23T08:21:19;1.93;;;1.30;;
35540;SDS011;21650;48.840;9.162;2023-03-23T08:23:45;3.07;;;1.40;;
35540;SDS011;21650;48.840;9.162;2023-03-23T08:26:11;2.17;;;1.40;;
35540;SDS011;21650;48.840;9.162;2023-03-23T08:28:37;4.17;;;1.70;;
35540;SDS011;21650;48.840;9.162;2023-03-23T08:31:09;2.77;;;1.70;;
35540;SDS011;21650;48.840;9.162;2023-03-23T08:33:36;3.30;;;1.50;;
35540;SDS011;21650;48.840;9.162;2023-03-23T08:36:03;2.20;;;1.50;;
35540;SDS011;21650;48.840;9.162;2023-03-23T08:38:29;3.23;;;1.47;;
35540;SDS011;21650;48.840;9.162;2023-03-23T08:41:02;3.77;;;1.50;;
35540;SDS011;21650;48.840;9.162;2023-03-23T08:43:30;2.90;;;1.73;;
35540;SDS011;21650;48.840;9.162;2023-03-23T08:45:59;2.20;;;1.70;;
35540;SDS011;21650;48.840;9.162;2023-03-23T08:48:25;5.73;;;1.83;;
35540;SDS011;21650;48.840;9.162;2023-03-23T08:50:51;3.10;;;1.80;;
35540;SDS011;21650;48.840;9.162;2023-03-23T08:53:17;2.80;;;2.33;;
35540;SDS011;21650;48.840;9.162;2023-03-23T08:55:43;4.57;;;1.47;;
35540;SDS011;21650;48.840;9.162;2023-03-23T08:58:10;3.77;;;1.93;;
35540;SDS011;21650;48.840;9.162;2023-03-23T09:00:35;1.90;;;1.40;;
35540;SDS011;21650;48.840;9.162;2023-03-23T09:03:01;3.57;;;2.20;;
35540;SDS011;21650;48.840;9.162;2023-03-23T09:05:28;1.80;;;1.57;;
35540;SDS011;21650;48.840;9.162;2023-03-23T09:07:55;3.43;;;2.00;;
35540;SDS011;21650;48.840;9.162;2023-03-23T09:10:24;4.03;;;1.97;;
35540;SDS011;21650;48.840;9.162;2023-03-23T09:12:51;2.97;;;1.50;;
35540;SDS011;21650;48.840;9.162;2023-03-23T09:15:18;3.30;;;1.43;;
35540;SDS011;21650;48.840;9.162;2023-03-23T09:17:45;2.53;;;1.53;;
35540;SDS011;21650;48.840;9.162;2023-03-23T09:20:12;1.90;;;1.50;;
35540;SDS011;21650;48.840;9.162;2023-03-23T09:22:41;3.93;;;2.00;;
35540;SDS011;21650;48.840;9.162;2023-03-23T09:25:10;3.60;;;1.97;;
35540;SDS011;21650;48.840;9.162;2023-03-23T09:27:38;2.03;;;1.53;;
35540;SDS011;21650;48.840;9.162;2023-03-23T09:30:05;2.43;;;1.93;;
35540;SDS011;21650;48.840;9.162;2023-03-23T09:32:33;2.33;;;1.50;;
35540;SDS011;21650;48.840;9.162;2023-03-23T09:35:03;2.83;;;1.70;;
35540;SDS011;21650;48.840;9.162;2023-03-23T09:37:32;6.27;;;2.20;;
35540;SDS011;21650;48.840;9.162;2023-03-23T09:40:00;3.37;;;2.30;;
35540;SDS011;21650;48.840;9.162;2023-03-23T09:45:11;3.77;;;2.13;;
35540;SDS011;21650;48.840;9.162;2023-03-23T09:50:25;2.50;;;1.90;;
35540;SDS011;21650;48.840;9.162;2023-03-23T09:52:58;2.30;;;1.60;;
35540;SDS011;21650;48.840;9.162;2023-03-23T09:55:36;4.20;;;1.50;;
35540;SDS011;21650;48.840;9.162;2023-03-23T09:58:14;2.50;;;1.80;;
35540;SDS011;21650;48.840;9.162;2023-03-23T10:03:42;5.27;;;1.70;;
35540;SDS011;21650;48.840;9.162;2023-03-23T10:06:11;2.83;;;1.83;;
35540;SDS011;21650;48.840;9.162;2023-03-23T10:08:47;3.23;;;1.83;;
35540;SDS011;21650;48.840;9.162;2023-03-23T10:14:26;2.70;;;1.70;;
35540;SDS011;21650;48.840;9.162;2023-03-23T10:19:49;3.83;;;1.50;;
35540;SDS011;21650;48.840;9.162;2023-03-23T10:22:37;2.40;;;1.77;;
35540;SDS011;21650;48.840;9.162;2023-03-23T10:25:14;2.17;;;1.53;;
35540;SDS011;21650;48.840;9.162;2023-03-23T10:27:45;4.07;;;1.50;;
35540;SDS011;21650;48.840;9.162;2023-03-23T10:30:36;2.37;;;1.40;;
35540;SDS011;21650;48.840;9.162;2023-03-23T10:33:10;2.17;;;1.57;;
35540;SDS011;21650;48.840;9.162;2023-03-23T10:35:39;1.80;;;1.20;;
35540;SDS011;21650;48.840;9.162;2023-03-23T10:38:28;2.07;;;1.50;;
35540;SDS011;21650;48.840;9.162;2023-03-23T10:40:59;2.27;;;2.07;;
35540;SDS011;21650;48.840;9.162;2023-03-23T10:43:30;2.40;;;1.47;;
35540;SDS011;21650;48.840;9.162;2023-03-23T10:45:57;2.83;;;1.27;;
35540;SDS011;21650;48.840;9.162;2023-03-23T10:48:31;2.33;;;1.47;;
35540;SDS011;21650;48.840;9.162;2023-03-23T10:51:02;2.43;;;1.43;;
35540;SDS011;21650;48.840;9.162;2023-03-23T10:53:34;3.07;;;1.03;;
35540;SDS011;21650;48.840;9.162;2023-03-23T10:56:02;2.60;;;1.50;;
35540;SDS011;21650;48.840;9.162;2023-03-23T10:58:30;2.63;;;1.53;;
35540;SDS011;21650;48.840;9.162;2023-03-23T11:00:58;2.43;;;1.33;;
35540;SDS011;21650;48.840;9.162;2023-03-23T11:03:33;1.80;;;0.90;;
35540;SDS011;21650;48.840;9.162;2023-03-23T11:06:18;2.03;;;1.10;;
35540;SDS011;21650;48.840;9.162;2023-03-23T11:08:48;0.97;;;0.80;;
35540;SDS011;21650;48.840;9.162;2023-03-23T11:11:21;2.47;;;2.00;;
35540;SDS011;21650;48.840;9.162;2023-03-23T11:13:49;3.27;;;1.50;;
35540;SDS011;21650;48.840;9.162;2023-03-23T11:18:51;2.97;;;1.53;;
35540;SDS011;21650;48.840;9.162;2023-03-23T11:21:17;1.97;;;1.40;;
35540;SDS011;21650;48.840;9.162;2023-03-23T11:23:50;2.33;;;1.30;;
35540;SDS011;21650;48.840;9.162;2023-03-23T11:26:31;1.47;;;1.27;;
35540;SDS011;21650;48.840;9.162;2023-03-23T11:29:17;2.07;;;1.40;;
35540;SDS011;21650;48.840;9.162;2023-03-23T11:31:52;2.10;;;1.20;;
35540;SDS011;21650;48.840;9.162;2023-03-23T11:34:39;2.33;;;1.20;;
35540;SDS011;21650;48.840;9.162;2023-03-23T11:45:31;3.23;;;1.77;;
35540;SDS011;21650;48.840;9.162;2023-03-23T11:48:03;2.93;;;1.63;;
35540;SDS011;21650;48.840;9.162;2023-03-23T11:53:33;3.17;;;1.40;;
35540;SDS011;21650;48.840;9.162;2023-03-23T11:56:29;3.57;;;1.80;;
35540;SDS011;21650;48.840;9.162;2023-03-23T11:59:25;3.20;;;1.63;;
35540;SDS011;21650;48.840;9.162;2023-03-23T12:07:55;2.50;;;1.70;;
35540;SDS011;21650;48.840;9.162;2023-03-23T12:10:52;1.90;;;1.47;;
35540;SDS011;21650;48.840;9.162;2023-03-23T12:22:33;3.00;;;1.70;;
35540;SDS011;21650;48.840;9.162;2023-03-23T12:28:18;4.03;;;1.67;;
35540;SDS011;21650;48.840;9.162;2023-03-23T12:31:21;1.40;;;1.30;;
35540;SDS011;21650;48.840;9.162;2023-03-23T12:33:57;2.03;;;1.67;;
35540;SDS011;21650;48.840;9.162;2023-03-23T12:36:53;5.07;;;1.60;;
35540;SDS011;21650;48.840;9.162;2023-03-23T12:39:39;2.40;;;1.80;;
35540;SDS011;21650;48.840;9.162;2023-03-23T12:42:16;2.67;;;1.83;;
35540;SDS011;21650;48.840;9.162;2023-03-23T12:44:57;2.67;;;2.03;;
35540;SDS011;21650;48.840;9.162;2023-03-23T12:50:34;4.53;;;1.90;;
35540;SDS011;21650;48.840;9.162;2023-03-23T12:53:11;1.80;;;1.40;;
35540;SDS011;21650;48.840;9.162;2023-03-23T12:55:47;1.43;;;1.23;;
35540;SDS011;21650;48.840;9.162;2023-03-23T12:58:18;3.97;;;1.50;;
35540;SDS011;21650;48.840;9.162;2023-03-23T13:01:06;2.43;;;1.70;;
35540;SDS011;21650;48.840;9.162;2023-03-23T13:03:48;2.67;;;1.87;;
35540;SDS011;21650;48.840;9.162;2023-03-23T13:08:52;5.57;;;2.43;;
35540;SDS011;21650;48.840;9.162;2023-03-23T13:11:32;4.23;;;1.73;;
35540;SDS011;21650;48.840;9.162;2023-03-23T13:19:21;4.30;;;1.60;;
35540;SDS011;21650;48.840;9.162;2023-03-23T13:22:16;2.70;;;1.30;;
35540;SDS011;21650;48.840;9.162;2023-03-23T13:24:51;2.37;;;1.50;;
35540;SDS011;21650;48.840;9.162;2023-03-23T13:27:24;2.83;;;1.57;;
35540;SDS011;21650;48.840;9.162;2023-03-23T13:29:53;1.77;;;1.60;;
35540;SDS011;21650;48.840;9.162;2023-03-23T13:32:27;1.73;;;1.30;;
35540;SDS011;21650;48.840;9.162;2023-03-23T13:35:03;2.80;;;1.50;;
35540;SDS011;21650;48.840;9.162;2023-03-23T13:37:40;1.77;;;1.43;;
35540;SDS011;21650;48.840;9.162;2023-03-23T13:42:36;2.20;;;1.50;;
35540;SDS011;21650;48.840;9.162;2023-03-23T13:50:29;3.00;;;1.40;;
35540;SDS011;21650;48.840;9.162;2023-03-23T13:53:00;2.87;;;1.57;;
35540;SDS011;21650;48.840;9.162;2023-03-23T13:55:41;2.87;;;1.77;;
35540;SDS011;21650;48.840;9.162;2023-03-23T13:58:20;3.80;;;1.80;;
35540;SDS011;21650;48.840;9.162;2023-03-23T14:00:48;1.83;;;1.33;;
35540;SDS011;21650;48.840;9.162;2023-03-23T14:03:32;1.80;;;1.37;;
35540;SDS011;21650;48.840;9.162;2023-03-23T14:06:04;2.67;;;1.40;;
35540;SDS011;21650;48.840;9.162;2023-03-23T14:11:01;3.17;;;1.40;;
35540;SDS011;21650;48.840;9.162;2023-03-23T14:16:24;3.80;;;2.00;;
35540;SDS011;21650;48.840;9.162;2023-03-23T14:18:56;2.40;;;1.70;;
35540;SDS011;21650;48.840;9.162;2023-03-23T14:21:34;2.97;;;1.80;;
35540;SDS011;21650;48.840;9.162;2023-03-23T14:27:19;3.80;;;2.00;;
35540;SDS011;21650;48.840;9.162;2023-03-23T14:30:00;3.77;;;1.50;;
35540;SDS011;21650;48.840;9.162;2023-03-23T14:32:31;3.00;;;1.70;;
35540;SDS011;21650;48.840;9.162;2023-03-23T14:34:58;3.47;;;1.60;;
35540;SDS011;21650;48.840;9.162;2023-03-23T14:37:29;1.83;;;1.50;;
35540;SDS011;21650;48.840;9.162;2023-03-23T14:39:56;1.53;;;1.30;;
35540;SDS011;21650;48.840;9.162;2023-03-23T14:42:27;3.30;;;1.60;;
35540;SDS011;21650;48.840;9.162;2023-03-23T14:44:55;3.00;;;1.60;;
35540;SDS011;21650;48.840;9.162;2023-03-23T14:47:26;2.40;;;1.60;;
35540;SDS011;21650;48.840;9.162;2023-03-23T14:49:56;2.27;;;1.70;;
35540;SDS011;21650;48.840;9.162;2023-03-23T14:52:24;3.07;;;1.50;;
35540;SDS011;21650;48.840;9.162;2023-03-23T14:54:53;3.97;;;1.50;;
35540;SDS011;21650;48.840;9.162;2023-03-23T14:57:25;3.77;;;2.00;;
35540;SDS011;21650;48.840;9.162;2023-03-23T14:59:52;2.17;;;1.67;;
35540;SDS011;21650;48.840;9.162;2023-03-23T15:02:21;2.30;;;1.87;;
35540;SDS011;21650;48.840;9.162;2023-03-23T15:04:51;1.53;;;1.23;;
35540;SDS011;21650;48.840;9.162;2023-03-23T15:07:21;2.53;;;1.60;;
35540;SDS011;21650;48.840;9.162;2023-03-23T15:09:51;2.70;;;2.10;;
35540;SDS011;21650;48.840;9.162;2023-03-23T15:12:24;5.57;;;2.23;;
35540;SDS011;21650;48.840;9.162;2023-03-23T15:14:53;4.17;;;1.77;;
35540;SDS011;21650;48.840;9.162;2023-03-23T15:17:31;2.97;;;1.60;;
35540;SDS011;21650;48.840;9.162;2023-03-23T15:20:07;4.40;;;1.70;;
35540;SDS011;21650;48.840;9.162;2023-03-23T15:22:34;2.43;;;1.57;;
35540;SDS011;21650;48.840;9.162;2023-03-23T15:25:20;2.43;;;1.70;;
35540;SDS011;21650;48.840;9.162;2023-03-23T15:27:54;2.73;;;1.70;;
35540;SDS011;21650;48.840;9.162;2023-03-23T15:32:47;3.47;;;1.97;;
35540;SDS011;21650;48.840;9.162;2023-03-23T15:35:21;4.00;;;2.10;;
35540;SDS011;21650;48.840;9.162;2023-03-23T15:37:57;2.27;;;1.60;;
35540;SDS011;21650;48.840;9.162;2023-03-23T15:40:31;3.07;;;2.10;;
35540;SDS011;21650;48.840;9.162;2023-03-23T15:43:16;3.13;;;1.93;;
35540;SDS011;21650;48.840;9.162;2023-03-23T15:45:55;2.53;;;1.97;;
35540;SDS011;21650;48.840;9.162;2023-03-23T15:48:25;2.80;;;1.80;;
35540;SDS011;21650;48.840;9.162;2023-03-23T15:50:51;2.80;;;1.60;;
35540;SDS011;21650;48.840;9.162;2023-03-23T15:53:26;2.80;;;1.90;;
35540;SDS011;21650;48.840;9.162;2023-03-23T15:55:54;2.67;;;1.53;;
35540;SDS011;21650;48.840;9.162;2023-03-23T15:58:20;2.70;;;1.67;;
35540;SDS011;21650;48.840;9.162;2023-03-23T16:00:46;2.40;;;1.70;;
35540;SDS011;21650;48.840;9.162;2023-03-23T16:03:17;3.03;;;1.90;;
35540;SDS011;21650;48.840;9.162;2023-03-23T16:05:49;3.33;;;1.60;;
35540;SDS011;21650;48.840;9.162;2023-03-23T16:08:15;2.33;;;1.97;;
35540;SDS011;21650;48.840;9.162;2023-03-23T16:10:41;5.00;;;1.77;;
35540;SDS011;21650;48.840;9.162;2023-03-23T16:13:07;2.97;;;1.80;;
35540;SDS011;21650;48.840;9.162;2023-03-23T16:15:33;3.83;;;1.73;;
35540;SDS011;21650;48.840;9.162;2023-03-23T16:17:58;5.93;;;2.13;;
35540;SDS011;21650;48.840;9.162;2023-03-23T16:20:24;4.37;;;1.67;;
35540;SDS011;21650;48.840;9.162;2023-03-23T16:22:50;3.53;;;1.70;;
35540;SDS011;21650;48.840;9.162;2023-03-23T16:25:16;2.33;;;1.57;;
35540;SDS011;21650;48.840;9.162;2023-03-23T16:27:43;2.83;;;1.50;;
35540;SDS011;21650;48.840;9.162;2023-03-23T16:30:15;3.83;;;1.90;;
35540;SDS011;21650;48.840;9.162;2023-03-23T16:32:45;3.20;;;1.70;;
35540;SDS011;21650;48.840;9.162;2023-03-23T16:35:12;3.70;;;2.50;;
35540;SDS011;21650;48.840;9.162;2023-03-23T16:37:38;3.30;;;1.70;;
35540;SDS011;21650;48.840;9.162;2023-03-23T16:40:10;4.70;;;2.60;;
35540;SDS011;21650;48.840;9.162;2023-03-23T16:42:37;2.03;;;1.67;;